Gloucester Point, Virginia
Current Conditions -  °F | °C
As of 3:54 AM on Wednesday 28 Jan 2015 (Local Time) from KPHF Reporting Station
Clear Clear  
Wind Chill: 21°   Ceiling: Unl
Heat Index: 31°   Visibility: 10mi
Dew Point: 15°   Wind: 13mph
Humidity: 52%   Direction: 350°N
Pressure: 30.03"   Gusts: 25mph
Location:  37.26°N, 76.49°W
Report Text: KPHF 280854Z 35011G22KT 10SM CLR M01/M09 A3003 RMK AO2 SLP168 T10061094 51021
Loading
Personal Weather Stations






























Interactive Weather Map New forecast layout! Learn more

10-Day Weather Forecast

Advertisements
Track Severe Weather on mobile